Time;durP1;ratioP1;P1;durP2;ratioP2;P2;SDS_P1;SDS_P2;PMS_P1;PMS_P2;Temp;Humidity;BMP_temperature;BMP_pressure;BME280_temperature;BME280_humidity;BME280_pressure;Samples;Min_cycle;Max_cycle;Signal;HPM_P1;HPM_P2
2024/04/02 00:01:09;;;;;;;4.43;0.90;;;13.20;99.90;;;;;;5001425;28;20872;-28
2024/04/02 00:03:38;;;;;;;1.27;0.90;;;13.20;99.90;;;;;;5002113;28;20455;-24
2024/04/02 00:06:07;;;;;;;1.23;0.80;;;13.20;99.90;;;;;;5001403;28;20412;-27
2024/04/02 00:08:36;;;;;;;1.50;1.00;;;13.20;99.90;;;;;;4987932;28;20438;-24
2024/04/02 00:11:08;;;;;;;1.00;0.80;;;13.20;99.90;;;;;;4986542;28;20547;-28
2024/04/02 00:13:34;;;;;;;1.20;0.90;;;13.20;99.90;;;;;;5000644;28;20474;-27
2024/04/02 00:16:01;;;;;;;1.50;1.10;;;13.20;99.90;;;;;;5002297;28;20447;-26
2024/04/02 00:18:32;;;;;;;2.43;1.00;;;13.20;99.90;;;;;;4984841;28;21076;-25
2024/04/02 00:21:01;;;;;;;3.67;1.17;;;13.20;99.90;;;;;;5000696;28;20468;-26
2024/04/02 00:23:27;;;;;;;3.23;1.00;;;13.10;99.90;;;;;;5002168;28;20420;-27
2024/04/02 00:26:04;;;;;;;2.10;1.00;;;13.10;99.90;;;;;;5002005;28;20876;-22
2024/04/02 00:28:31;;;;;;;2.33;1.17;;;13.10;99.90;;;;;;5000233;28;20473;-26
2024/04/02 00:31:00;;;;;;;1.90;1.00;;;13.10;99.90;;;;;;5003599;28;20439;-22
2024/04/02 00:33:28;;;;;;;2.13;1.30;;;13.10;99.90;;;;;;5001979;28;20428;-26
2024/04/02 00:36:04;;;;;;;1.43;0.90;;;13.10;99.90;;;;;;5001685;28;20438;-25
2024/04/02 00:38:33;;;;;;;1.53;1.07;;;13.10;99.90;;;;;;4999665;28;20503;-26
2024/04/02 00:40:59;;;;;;;2.20;0.97;;;13.10;99.90;;;;;;4984168;28;20571;-22
2024/04/02 00:43:26;;;;;;;1.20;1.00;;;13.10;99.90;;;;;;5003532;28;20495;-26
2024/04/02 00:45:55;;;;;;;1.43;1.30;;;13.10;99.90;;;;;;4985333;28;20464;-26
2024/04/02 00:48:22;;;;;;;1.57;0.90;;;13.10;99.90;;;;;;5001472;28;20960;-24
2024/04/02 00:50:49;;;;;;;2.00;1.00;;;13.10;99.90;;;;;;4984068;28;20424;-26
2024/04/02 00:53:15;;;;;;;1.83;1.10;;;13.00;99.90;;;;;;4983738;28;20457;-24
2024/04/02 00:55:45;;;;;;;4.00;1.10;;;13.10;99.90;;;;;;5000620;28;20429;-26
2024/04/02 00:58:11;;;;;;;2.20;1.13;;;13.00;99.90;;;;;;4989619;28;20460;-23
2024/04/02 01:00:40;;;;;;;1.77;1.30;;;13.00;99.90;;;;;;4992285;28;20461;-26
2024/04/02 01:03:07;;;;;;;2.73;1.13;;;13.00;99.90;;;;;;5002839;28;20437;-26
2024/04/02 01:05:35;;;;;;;1.23;0.93;;;13.00;99.90;;;;;;5007748;28;20436;-26
2024/04/02 01:08:03;;;;;;;3.10;1.27;;;13.00;99.90;;;;;;5007020;28;21267;-25
2024/04/02 01:10:30;;;;;;;1.00;0.90;;;13.00;99.90;;;;;;5002346;28;20848;-22
2024/04/02 01:12:59;;;;;;;2.33;1.07;;;13.00;99.90;;;;;;4984662;28;20423;-26
2024/04/02 01:15:27;;;;;;;1.17;1.00;;;13.00;99.90;;;;;;5002758;28;20428;-25
2024/04/02 01:17:56;;;;;;;1.13;0.90;;;13.00;99.90;;;;;;5002947;28;21002;-25
2024/04/02 01:20:22;;;;;;;1.20;0.90;;;13.00;99.90;;;;;;5013008;28;20463;-23
2024/04/02 01:22:49;;;;;;;1.53;0.97;;;13.00;99.90;;;;;;5004201;28;20526;-26
2024/04/02 01:25:23;;;;;;;2.73;1.20;;;13.00;99.90;;;;;;5006119;28;20424;-24
2024/04/02 01:27:49;;;;;;;1.63;1.07;;;12.90;99.90;;;;;;5002517;28;20514;-26
2024/04/02 01:30:15;;;;;;;1.30;0.93;;;13.00;99.90;;;;;;5001803;28;20433;-25
2024/04/02 01:32:43;;;;;;;7.17;1.17;;;13.00;99.90;;;;;;5002817;28;20842;-26
2024/04/02 01:35:13;;;;;;;2.67;1.20;;;12.90;99.90;;;;;;4999956;28;20441;-26
2024/04/02 01:37:42;;;;;;;2.30;1.10;;;12.90;99.90;;;;;;5001589;28;21174;-24
2024/04/02 01:40:08;;;;;;;1.50;1.00;;;12.90;99.90;;;;;;5000827;28;20489;-26
2024/04/02 01:42:36;;;;;;;1.73;0.97;;;12.90;99.90;;;;;;5002425;28;20417;-27
2024/04/02 01:45:03;;;;;;;1.63;1.10;;;12.90;99.90;;;;;;5002126;28;20409;-24
2024/04/02 01:47:30;;;;;;;1.83;1.13;;;12.90;99.90;;;;;;5001203;28;20434;-26
2024/04/02 01:49:55;;;;;;;2.40;0.80;;;12.90;99.90;;;;;;5001002;28;21027;-25
2024/04/02 01:52:24;;;;;;;1.17;0.80;;;12.90;99.90;;;;;;4983869;28;20433;-26
2024/04/02 01:54:50;;;;;;;2.13;1.10;;;12.90;99.90;;;;;;5001543;28;20452;-23
2024/04/02 01:57:18;;;;;;;2.40;1.10;;;12.90;99.90;;;;;;5001082;28;20432;-26
2024/04/02 01:59:45;;;;;;;2.30;1.00;;;12.90;99.90;;;;;;5003951;28;20489;-23
2024/04/02 02:02:10;;;;;;;1.17;0.73;;;12.90;99.90;;;;;;5004860;28;20506;-22
2024/04/02 02:04:37;;;;;;;0.90;0.80;;;12.80;99.90;;;;;;5005120;28;21165;-26
2024/04/02 02:07:03;;;;;;;1.50;1.00;;;12.90;99.90;;;;;;5005288;28;20445;-24
2024/04/02 02:09:29;;;;;;;2.23;1.00;;;12.80;99.90;;;;;;5004986;28;20991;-25
2024/04/02 02:11:58;;;;;;;3.40;1.30;;;12.80;99.90;;;;;;5005069;28;20436;-26
2024/04/02 02:14:29;;;;;;;2.30;0.90;;;12.80;99.90;;;;;;5004565;28;20433;-27
2024/04/02 02:16:55;;;;;;;1.90;1.00;;;12.80;99.90;;;;;;5005187;28;21303;-23
2024/04/02 02:19:25;;;;;;;1.37;1.10;;;12.80;99.90;;;;;;4988028;28;21059;-26
2024/04/02 02:21:51;;;;;;;2.70;1.30;;;12.80;99.90;;;;;;5004515;28;20883;-26
2024/04/02 02:24:17;;;;;;;3.20;0.87;;;12.80;99.90;;;;;;5003894;28;20431;-26
2024/04/02 02:26:43;;;;;;;1.07;0.90;;;12.80;99.90;;;;;;5004034;28;20422;-27
2024/04/02 02:29:10;;;;;;;1.83;1.40;;;12.80;99.90;;;;;;5004439;28;20453;-25
2024/04/02 02:31:38;;;;;;;2.60;0.90;;;12.70;99.90;;;;;;5003764;28;20654;-26
2024/04/02 02:34:04;;;;;;;2.63;0.93;;;12.80;99.90;;;;;;4987792;28;20431;-26
2024/04/02 02:36:33;;;;;;;2.87;1.10;;;12.80;99.90;;;;;;5018596;28;21017;-24
2024/04/02 02:38:59;;;;;;;0.90;0.80;;;12.80;99.90;;;;;;5002759;28;20498;-27
2024/04/02 02:41:25;;;;;;;3.03;1.13;;;12.80;99.90;;;;;;4990353;28;20463;-26
2024/04/02 02:43:51;;;;;;;2.40;1.00;;;12.70;99.90;;;;;;5003751;28;20485;-27
2024/04/02 02:46:21;;;;;;;1.17;1.07;;;12.70;99.90;;;;;;5003425;28;20429;-26
2024/04/02 02:48:47;;;;;;;1.10;0.87;;;12.70;99.90;;;;;;5002868;28;20497;-26
2024/04/02 02:51:13;;;;;;;1.10;0.90;;;12.70;99.90;;;;;;5014913;28;20435;-25
2024/04/02 02:53:39;;;;;;;1.70;0.90;;;12.70;99.90;;;;;;5003095;28;20459;-26
2024/04/02 02:56:06;;;;;;;1.10;0.90;;;12.70;99.90;;;;;;5001030;28;20425;-26
2024/04/02 02:58:31;;;;;;;2.30;0.83;;;12.70;99.90;;;;;;5003124;28;20456;-26
2024/04/02 03:00:57;;;;;;;1.57;1.23;;;12.70;99.90;;;;;;5002448;28;20501;-26
2024/04/02 03:03:23;;;;;;;2.40;1.10;;;12.70;99.90;;;;;;5003169;28;20417;-25
2024/04/02 03:05:54;;;;;;;1.47;1.00;;;12.70;99.90;;;;;;5001389;28;20471;-26
2024/04/02 03:08:22;;;;;;;2.30;1.00;;;12.70;99.90;;;;;;5003620;28;21059;-26
2024/04/02 03:11:00;;;;;;;3.17;1.30;;;12.70;99.90;;;;;;5000690;28;20472;-25
2024/04/02 03:13:27;;;;;;;1.67;1.10;;;12.70;99.90;;;;;;5003035;28;20474;-25
2024/04/02 03:15:56;;;;;;;2.37;1.00;;;12.70;99.90;;;;;;5009328;28;20448;-23
2024/04/02 03:18:22;;;;;;;4.00;1.47;;;12.70;99.90;;;;;;4984481;28;20453;-25
2024/04/02 03:20:49;;;;;;;2.30;1.40;;;12.70;99.90;;;;;;5002269;28;20472;-24
2024/04/02 03:23:19;;;;;;;1.40;1.07;;;12.70;99.90;;;;;;5002982;28;20421;-24
2024/04/02 03:25:55;;;;;;;1.83;1.00;;;12.70;99.90;;;;;;5001225;28;20416;-26
2024/04/02 03:28:25;;;;;;;1.60;1.10;;;12.70;99.90;;;;;;5002189;28;20479;-23
2024/04/02 03:31:01;;;;;;;2.00;1.17;;;12.60;99.90;;;;;;5000421;28;20409;-27
2024/04/02 03:33:31;;;;;;;1.97;1.10;;;12.60;99.90;;;;;;5001848;28;20449;-23
2024/04/02 03:36:08;;;;;;;2.50;1.30;;;12.60;99.90;;;;;;5001212;28;20448;-26
2024/04/02 03:38:36;;;;;;;2.00;1.33;;;12.60;99.90;;;;;;5000516;28;20471;-25
2024/04/02 03:41:09;;;;;;;2.27;1.07;;;12.60;99.90;;;;;;5000898;28;20472;-24
2024/04/02 03:43:36;;;;;;;1.37;1.23;;;12.60;99.90;;;;;;4968966;28;20436;-24
2024/04/02 03:46:03;;;;;;;2.10;1.17;;;12.60;99.90;;;;;;4982836;28;20422;-25
2024/04/02 03:48:30;;;;;;;1.60;0.90;;;12.60;99.90;;;;;;5001625;28;20461;-23
2024/04/02 03:50:56;;;;;;;2.07;1.10;;;12.60;99.90;;;;;;5001849;28;20609;-26
2024/04/02 03:53:23;;;;;;;1.73;0.80;;;12.60;99.90;;;;;;5000742;28;20487;-25
2024/04/02 03:55:59;;;;;;;3.40;1.00;;;12.60;99.90;;;;;;4981194;28;20822;-27
2024/04/02 03:58:26;;;;;;;2.57;1.07;;;12.60;99.90;;;;;;4989414;28;20533;-23
2024/04/02 04:00:56;;;;;;;2.00;1.13;;;12.60;99.90;;;;;;5002493;28;20476;-25
2024/04/02 04:03:26;;;;;;;2.23;1.00;;;12.60;99.90;;;;;;5000610;28;20405;-27
2024/04/02 04:05:59;;;;;;;2.10;1.10;;;12.50;99.90;;;;;;4983132;28;20469;-25
2024/04/02 04:08:29;;;;;;;1.60;1.30;;;12.50;99.90;;;;;;4985384;28;20442;-25
2024/04/02 04:10:55;;;;;;;1.43;1.00;;;12.50;99.90;;;;;;5001920;28;20462;-26
2024/04/02 04:13:23;;;;;;;2.63;1.30;;;12.50;99.90;;;;;;5000218;28;20451;-25
2024/04/02 04:15:54;;;;;;;2.37;1.10;;;12.50;99.90;;;;;;5001576;28;20436;-25
2024/04/02 04:18:21;;;;;;;0.93;0.80;;;12.50;99.90;;;;;;5001642;28;20547;-26
2024/04/02 04:20:58;;;;;;;1.80;1.27;;;12.50;99.90;;;;;;4999811;28;20550;-26
2024/04/02 04:23:28;;;;;;;2.77;1.40;;;12.50;99.90;;;;;;4986533;28;20961;-25
2024/04/02 04:26:00;;;;;;;4.53;1.37;;;12.50;99.90;;;;;;4999490;28;20488;-28
2024/04/02 04:28:27;;;;;;;1.90;1.10;;;12.50;99.90;;;;;;4999474;28;21122;-23
2024/04/02 04:30:56;;;;;;;1.57;1.10;;;12.50;99.90;;;;;;4983562;28;20464;-24
2024/04/02 04:33:23;;;;;;;1.60;1.40;;;12.50;99.90;;;;;;5001077;28;20456;-27
2024/04/02 04:35:53;;;;;;;3.20;1.20;;;12.50;99.90;;;;;;5001096;28;20456;-27
2024/04/02 04:38:20;;;;;;;1.07;0.93;;;12.50;99.90;;;;;;5001303;28;20498;-22
2024/04/02 04:40:46;;;;;;;1.20;1.00;;;12.50;99.90;;;;;;5001154;28;20464;-25
2024/04/02 04:43:16;;;;;;;1.70;1.23;;;12.50;99.90;;;;;;5000225;28;20453;-26
2024/04/02 04:45:55;;;;;;;1.50;1.30;;;12.50;99.90;;;;;;5001392;28;20453;-26
2024/04/02 04:48:21;;;;;;;2.93;1.10;;;12.50;99.90;;;;;;4996121;28;20472;-23
2024/04/02 04:51:07;;;;;;;1.60;1.00;;;12.50;99.90;;;;;;5001153;28;20471;-26
2024/04/02 04:53:34;;;;;;;3.63;1.10;;;12.40;99.90;;;;;;5017401;28;20558;-27
2024/04/02 04:56:04;;;;;;;1.87;1.00;;;12.50;99.90;;;;;;5018125;28;20846;-22
2024/04/02 04:58:32;;;;;;;3.03;1.27;;;12.50;99.90;;;;;;5001705;28;21253;-26
2024/04/02 05:00:59;;;;;;;2.27;1.00;;;12.40;99.90;;;;;;4983660;28;20473;-24
2024/04/02 05:03:26;;;;;;;2.30;1.17;;;12.40;99.90;;;;;;4999664;28;20453;-25
2024/04/02 05:06:05;;;;;;;2.10;1.27;;;12.50;99.90;;;;;;5000933;28;20426;-26
2024/04/02 05:08:33;;;;;;;1.93;1.27;;;12.40;99.90;;;;;;4999464;28;20443;-27
2024/04/02 05:11:01;;;;;;;1.67;1.00;;;12.40;99.90;;;;;;5002882;28;20429;-28
2024/04/02 05:13:28;;;;;;;2.50;1.23;;;12.40;99.90;;;;;;5019753;28;20424;-26
2024/04/02 05:15:54;;;;;;;2.43;0.90;;;12.40;99.90;;;;;;5017501;28;20970;-25
2024/04/02 05:18:22;;;;;;;4.30;1.40;;;12.40;99.90;;;;;;5001789;28;20536;-23
2024/04/02 05:20:49;;;;;;;2.10;1.10;;;12.40;99.90;;;;;;4998400;28;20986;-27
2024/04/02 05:23:15;;;;;;;3.30;1.47;;;12.40;99.90;;;;;;4999259;28;20520;-24
2024/04/02 05:25:42;;;;;;;3.63;1.70;;;12.40;99.90;;;;;;4983000;28;20463;-27
2024/04/02 05:28:11;;;;;;;1.67;1.10;;;12.40;99.90;;;;;;4997236;28;20872;-25
2024/04/02 05:30:39;;;;;;;1.70;1.40;;;12.40;99.90;;;;;;4999908;28;20438;-23
2024/04/02 05:33:05;;;;;;;4.70;1.33;;;12.40;99.90;;;;;;5001224;28;20437;-24
2024/04/02 05:35:31;;;;;;;2.57;1.00;;;12.40;99.90;;;;;;4981465;28;20448;-26
2024/04/02 05:38:00;;;;;;;2.73;1.33;;;12.40;99.90;;;;;;4997751;28;20528;-27
2024/04/02 05:40:26;;;;;;;1.60;1.20;;;12.40;99.90;;;;;;4998520;28;21113;-26
2024/04/02 05:42:53;;;;;;;1.20;0.90;;;12.40;99.90;;;;;;4999750;28;20459;-26
2024/04/02 05:45:19;;;;;;;3.97;1.43;;;12.40;99.90;;;;;;4999519;28;20449;-25
2024/04/02 05:47:45;;;;;;;1.60;1.20;;;12.40;99.90;;;;;;4999004;28;20417;-25
2024/04/02 05:50:11;;;;;;;2.70;1.10;;;12.30;99.90;;;;;;4997901;28;20524;-27
2024/04/02 05:52:38;;;;;;;3.53;1.60;;;12.40;99.90;;;;;;4998668;28;20445;-26
2024/04/02 05:55:04;;;;;;;3.23;1.47;;;12.40;99.90;;;;;;4997460;28;20940;-24
2024/04/02 05:57:33;;;;;;;3.03;1.10;;;12.40;99.90;;;;;;4999261;28;20432;-25
2024/04/02 05:59:59;;;;;;;2.30;1.30;;;12.40;99.90;;;;;;4998944;28;20837;-24
2024/04/02 06:02:25;;;;;;;1.73;1.40;;;12.40;99.90;;;;;;4997446;28;20554;-23
2024/04/02 06:04:51;;;;;;;3.37;1.30;;;12.30;99.90;;;;;;4998714;28;20433;-26
2024/04/02 06:07:17;;;;;;;2.93;1.30;;;12.30;99.90;;;;;;4998837;28;20495;-25
2024/04/02 06:09:43;;;;;;;6.37;1.60;;;12.30;99.90;;;;;;4999018;28;20445;-26
2024/04/02 06:12:11;;;;;;;2.63;1.03;;;12.40;99.90;;;;;;4997224;28;20479;-24
2024/04/02 06:14:38;;;;;;;1.20;1.10;;;12.30;99.90;;;;;;4980577;28;20401;-25
2024/04/02 06:17:04;;;;;;;4.57;1.23;;;12.40;99.90;;;;;;4998874;28;21107;-26
2024/04/02 06:19:33;;;;;;;1.80;1.37;;;12.30;99.90;;;;;;4999063;28;20521;-24
2024/04/02 06:22:01;;;;;;;3.60;1.47;;;12.30;99.90;;;;;;4999162;28;20464;-26
2024/04/02 06:24:28;;;;;;;5.80;1.50;;;12.30;99.90;;;;;;4985294;28;20471;-23
2024/04/02 06:26:54;;;;;;;2.80;1.57;;;12.30;99.90;;;;;;4998403;28;20482;-27
2024/04/02 06:29:20;;;;;;;1.60;1.50;;;12.30;99.90;;;;;;4997169;28;20549;-27
2024/04/02 06:31:46;;;;;;;4.80;1.40;;;12.30;99.90;;;;;;4996001;28;20845;-27
2024/04/02 06:34:12;;;;;;;4.90;2.00;;;12.30;99.90;;;;;;4996991;28;20440;-26
2024/04/02 06:36:39;;;;;;;7.57;2.20;;;12.30;99.90;;;;;;4995666;28;20964;-26
2024/04/02 06:39:05;;;;;;;3.53;1.60;;;12.30;99.90;;;;;;4997197;28;20637;-27
2024/04/02 06:41:31;;;;;;;3.30;1.47;;;12.30;99.90;;;;;;4997849;28;20551;-27
2024/04/02 06:43:57;;;;;;;4.40;1.63;;;12.30;99.90;;;;;;4995446;28;20425;-27
2024/04/02 06:46:24;;;;;;;2.43;1.60;;;12.30;99.90;;;;;;4999835;28;20425;-26
2024/04/02 06:48:50;;;;;;;6.90;2.07;;;12.30;99.90;;;;;;5000441;28;20471;-27
2024/04/02 06:51:16;;;;;;;4.57;2.30;;;12.30;99.90;;;;;;4999507;28;20445;-27
2024/04/02 06:53:43;;;;;;;3.17;1.40;;;12.30;99.90;;;;;;4998765;28;20474;-27
2024/04/02 06:56:09;;;;;;;2.53;1.70;;;12.30;99.90;;;;;;4998635;28;20451;-27
2024/04/02 06:58:37;;;;;;;4.50;1.77;;;12.30;99.90;;;;;;4982479;28;21058;-27
2024/04/02 07:01:06;;;;;;;8.33;1.80;;;12.30;99.90;;;;;;4982641;28;20563;-26
2024/04/02 07:03:31;;;;;;;4.83;1.63;;;12.30;99.90;;;;;;4998840;28;20904;-27
2024/04/02 07:05:58;;;;;;;4.73;1.90;;;12.30;99.90;;;;;;5000256;28;20642;-25
2024/04/02 07:08:28;;;;;;;3.60;2.20;;;12.30;99.90;;;;;;4982439;28;20460;-27
2024/04/02 07:10:58;;;;;;;6.43;2.23;;;12.30;99.90;;;;;;4999036;28;20428;-27
2024/04/02 07:13:28;;;;;;;3.17;2.00;;;12.30;99.90;;;;;;4999967;28;20490;-26
2024/04/02 07:15:54;;;;;;;5.57;2.10;;;12.30;99.90;;;;;;4999679;28;20595;-26
2024/04/02 07:18:21;;;;;;;2.97;1.60;;;12.30;99.90;;;;;;4979210;28;20592;-26
2024/04/02 07:21:06;;;;;;;5.97;1.80;;;12.30;99.90;;;;;;4999919;28;20955;-27
2024/04/02 07:23:36;;;;;;;4.33;2.00;;;12.30;99.90;;;;;;4995998;28;20912;-27
2024/04/02 07:26:03;;;;;;;4.83;2.07;;;12.30;99.90;;;;;;4998494;28;20495;-27
2024/04/02 07:28:30;;;;;;;4.13;1.77;;;12.30;99.90;;;;;;4998829;28;21313;-26
2024/04/02 07:30:56;;;;;;;5.43;2.00;;;12.30;99.90;;;;;;5004754;28;20898;-27
2024/04/02 07:33:22;;;;;;;8.60;1.93;;;12.30;99.90;;;;;;5001495;28;20511;-30
2024/04/02 07:35:55;;;;;;;2.97;1.50;;;12.30;99.90;;;;;;4999532;28;20456;-30
2024/04/02 07:38:21;;;;;;;2.80;1.67;;;12.30;99.90;;;;;;4998657;28;20849;-29
2024/04/02 07:40:48;;;;;;;6.23;2.53;;;12.30;99.90;;;;;;4981685;28;21344;-27
2024/04/02 07:43:14;;;;;;;4.83;1.60;;;12.30;99.90;;;;;;5000213;28;20431;-27
2024/04/02 07:45:50;;;;;;;4.50;2.03;;;12.30;99.90;;;;;;4999890;28;20421;-29
2024/04/02 07:48:17;;;;;;;6.80;1.97;;;12.30;99.90;;;;;;4998282;28;20440;-28
2024/04/02 07:50:43;;;;;;;6.07;1.97;;;12.30;99.90;;;;;;4999407;28;20513;-27
2024/04/02 07:53:09;;;;;;;4.07;2.27;;;12.30;99.90;;;;;;4997732;28;20467;-29
2024/04/02 07:55:35;;;;;;;4.90;2.13;;;12.30;99.90;;;;;;4998090;28;20444;-27
2024/04/02 07:58:04;;;;;;;5.23;1.93;;;12.30;99.90;;;;;;4999195;28;20439;-28
2024/04/02 08:00:30;;;;;;;5.13;1.93;;;12.30;99.90;;;;;;4999416;28;20609;-27
2024/04/02 08:02:57;;;;;;;6.00;1.70;;;12.30;99.90;;;;;;4998953;28;21234;-30
2024/04/02 08:05:26;;;;;;;4.30;2.13;;;12.30;99.90;;;;;;4981612;28;21064;-29
2024/04/02 08:07:54;;;;;;;5.00;1.70;;;12.30;99.90;;;;;;4999187;28;20445;-30
2024/04/02 08:10:20;;;;;;;4.67;1.83;;;12.30;99.90;;;;;;4997825;28;21068;-30
2024/04/02 08:12:49;;;;;;;5.00;2.00;;;12.30;99.90;;;;;;4999504;28;20502;-30
2024/04/02 08:15:15;;;;;;;8.10;2.13;;;12.30;99.90;;;;;;5013707;28;20469;-29
2024/04/02 08:17:41;;;;;;;5.00;1.63;;;12.30;99.90;;;;;;4981207;28;20956;-30
2024/04/02 08:20:09;;;;;;;5.70;1.83;;;12.30;99.90;;;;;;4999002;28;20484;-28
2024/04/02 08:22:35;;;;;;;7.00;2.53;;;12.30;99.90;;;;;;4997623;28;20203;-30
2024/04/02 08:25:01;;;;;;;8.10;2.43;;;12.30;99.90;;;;;;4999022;28;20498;-27
2024/04/02 08:27:27;;;;;;;5.10;2.30;;;12.30;99.90;;;;;;4997262;28;20456;-28
2024/04/02 08:29:56;;;;;;;8.00;1.83;;;12.30;99.90;;;;;;4998094;28;20928;-28
2024/04/02 08:32:24;;;;;;;4.03;1.77;;;12.30;99.90;;;;;;4981326;28;20441;-30
2024/04/02 08:34:50;;;;;;;9.07;3.03;;;12.30;99.90;;;;;;4997022;28;20468;-29
2024/04/02 08:37:16;;;;;;;6.37;1.80;;;12.30;99.90;;;;;;4999350;28;20919;-29
2024/04/02 08:39:42;;;;;;;7.67;2.00;;;12.30;99.90;;;;;;4998592;28;20953;-28
2024/04/02 08:42:08;;;;;;;3.57;2.00;;;12.30;99.90;;;;;;4998880;28;20534;-27
2024/04/02 08:44:37;;;;;;;6.93;2.00;;;12.30;99.90;;;;;;4996102;28;20214;-26
2024/04/02 08:47:03;;;;;;;5.77;1.93;;;12.30;99.90;;;;;;4980967;28;20467;-28
2024/04/02 08:49:33;;;;;;;8.20;2.17;;;12.30;99.90;;;;;;4998134;28;20456;-27
2024/04/02 08:52:02;;;;;;;4.27;1.40;;;12.30;99.90;;;;;;4997141;28;20454;-30
2024/04/02 08:54:30;;;;;;;3.60;1.53;;;12.40;99.90;;;;;;4997196;28;20428;-30
2024/04/02 08:56:59;;;;;;;5.13;2.10;;;12.30;99.90;;;;;;4999039;28;20435;-26
2024/04/02 08:59:31;;;;;;;4.93;1.93;;;12.30;99.90;;;;;;4996843;28;20522;-27
2024/04/02 09:02:00;;;;;;;5.30;2.00;;;12.30;99.90;;;;;;4996983;28;20885;-29
2024/04/02 09:04:32;;;;;;;4.80;1.80;;;12.30;99.90;;;;;;4998552;28;20449;-26
2024/04/02 09:07:00;;;;;;;5.00;2.03;;;12.30;99.90;;;;;;4998670;28;20441;-29
2024/04/02 09:09:26;;;;;;;4.67;1.83;;;12.30;99.90;;;;;;4997041;28;20998;-31
2024/04/02 09:11:54;;;;;;;10.97;2.10;;;12.40;99.90;;;;;;4998915;28;20517;-28
2024/04/02 09:14:20;;;;;;;7.53;2.37;;;12.40;99.90;;;;;;4996654;28;20969;-27
2024/04/02 09:16:47;;;;;;;5.03;1.83;;;12.40;99.90;;;;;;4999430;28;20428;-27
2024/04/02 09:19:13;;;;;;;6.17;2.43;;;12.40;99.90;;;;;;4998388;28;20464;-28
2024/04/02 09:21:39;;;;;;;2.17;1.30;;;12.40;99.90;;;;;;4998153;28;20792;-27
2024/04/02 09:24:10;;;;;;;4.43;1.97;;;12.40;99.90;;;;;;4997225;28;20429;-29
2024/04/02 09:26:37;;;;;;;4.20;1.40;;;12.40;99.90;;;;;;4966351;28;21267;-27
2024/04/02 09:29:05;;;;;;;5.53;1.60;;;12.40;99.90;;;;;;4982777;28;20488;-29
2024/04/02 09:31:33;;;;;;;3.57;1.80;;;12.40;99.90;;;;;;4998141;28;20498;-30
2024/04/02 09:34:05;;;;;;;8.60;1.70;;;12.50;99.90;;;;;;4998471;28;20413;-28
2024/04/02 09:36:48;;;;;;;5.30;1.80;;;12.40;99.90;;;;;;4998653;28;20427;-30
2024/04/02 09:39:16;;;;;;;5.70;1.37;;;12.40;99.90;;;;;;4996741;28;21375;-28
2024/04/02 09:41:44;;;;;;;3.87;1.60;;;12.50;99.90;;;;;;4995714;28;20473;-30
2024/04/02 09:44:19;;;;;;;4.20;1.43;;;12.50;99.90;;;;;;4997688;28;20969;-27
2024/04/02 09:46:48;;;;;;;4.90;1.60;;;12.50;99.90;;;;;;4997759;28;20443;-28
2024/04/02 09:49:15;;;;;;;5.67;1.97;;;12.50;99.90;;;;;;5000743;28;21300;-25
2024/04/02 09:51:42;;;;;;;5.57;1.60;;;12.50;99.90;;;;;;4979313;28;20437;-25
2024/04/02 09:54:09;;;;;;;3.10;1.37;;;12.50;99.90;;;;;;4994033;28;20478;-27
2024/04/02 09:56:37;;;;;;;5.33;1.83;;;12.50;99.90;;;;;;4996945;28;20462;-24
2024/04/02 09:59:05;;;;;;;3.33;1.73;;;12.50;99.90;;;;;;4993768;28;21248;-25
2024/04/02 10:01:46;;;;;;;5.23;1.80;;;12.50;99.90;;;;;;4997378;28;20476;-26
2024/04/02 10:04:15;;;;;;;7.57;2.10;;;12.50;99.90;;;;;;4995615;28;20532;-25
2024/04/02 10:06:42;;;;;;;3.90;1.43;;;12.50;99.90;;;;;;4996454;28;20482;-27
2024/04/02 10:09:16;;;;;;;5.60;1.83;;;12.50;99.90;;;;;;4996678;28;20446;-27
2024/04/02 10:11:49;;;;;;;4.07;1.67;;;12.50;99.90;;;;;;4996824;28;20519;-25
2024/04/02 10:14:20;;;;;;;8.20;1.87;;;12.50;99.90;;;;;;4996328;28;20428;-25
2024/04/02 10:16:49;;;;;;;2.97;1.30;;;12.50;99.90;;;;;;4994204;28;20504;-27
2024/04/02 10:19:19;;;;;;;6.30;1.87;;;12.60;99.90;;;;;;4997471;28;20448;-25
2024/04/02 10:21:47;;;;;;;3.07;1.60;;;12.60;99.90;;;;;;4998250;28;20486;-27
2024/04/02 10:24:20;;;;;;;3.03;1.53;;;12.60;99.90;;;;;;4957023;28;20427;-25
2024/04/02 10:26:54;;;;;;;2.77;1.47;;;12.60;99.90;;;;;;4998854;28;20455;-26
2024/04/02 10:29:31;;;;;;;4.30;1.63;;;12.60;99.90;;;;;;4997977;28;20447;-27
2024/04/02 10:31:58;;;;;;;6.90;1.60;;;12.60;99.90;;;;;;5000357;28;21057;-27
2024/04/02 10:34:26;;;;;;;5.70;1.70;;;12.70;99.90;;;;;;4998806;28;20515;-30
2024/04/02 10:36:55;;;;;;;3.40;1.53;;;12.70;99.90;;;;;;4997860;28;20560;-30
2024/04/02 10:39:30;;;;;;;3.90;1.80;;;12.70;99.90;;;;;;4998406;28;21336;-30
2024/04/02 10:41:57;;;;;;;4.67;1.53;;;12.80;99.90;;;;;;4998716;28;20477;-30
2024/04/02 10:44:26;;;;;;;8.40;2.47;;;12.80;99.90;;;;;;5002063;28;20441;-30
2024/04/02 10:46:52;;;;;;;4.80;2.10;;;12.80;99.90;;;;;;4999478;28;20449;-30
2024/04/02 10:49:18;;;;;;;3.60;1.80;;;12.90;99.90;;;;;;4999276;28;21309;-30
2024/04/02 10:51:44;;;;;;;2.20;1.20;;;12.90;99.90;;;;;;5000451;28;20442;-30
2024/04/02 10:54:10;;;;;;;2.10;1.30;;;12.90;99.90;;;;;;5004789;28;20448;-31
2024/04/02 10:56:37;;;;;;;5.87;2.00;;;12.90;99.90;;;;;;4988911;28;20493;-31
2024/04/02 10:59:03;;;;;;;5.77;1.83;;;12.90;99.90;;;;;;5001297;28;21182;-31
2024/04/02 11:01:31;;;;;;;4.23;1.63;;;12.90;99.90;;;;;;4998361;28;20482;-30
2024/04/02 11:04:02;;;;;;;7.27;1.60;;;12.90;99.90;;;;;;4999570;28;21136;-29
2024/04/02 11:06:29;;;;;;;3.27;1.60;;;13.00;99.90;;;;;;4997348;28;20440;-30
2024/04/02 11:08:56;;;;;;;3.17;1.67;;;13.00;99.90;;;;;;4998416;28;20449;-29
2024/04/02 11:11:26;;;;;;;5.50;1.70;;;13.00;99.90;;;;;;4998383;28;20441;-30
2024/04/02 11:13:52;;;;;;;5.73;2.17;;;13.00;99.90;;;;;;4995296;28;20459;-31
2024/04/02 11:16:18;;;;;;;3.13;1.40;;;13.00;99.90;;;;;;4997854;28;21015;-31
2024/04/02 11:18:45;;;;;;;7.40;1.90;;;13.00;99.90;;;;;;4998531;28;20754;-31
2024/04/02 11:21:17;;;;;;;5.00;1.90;;;13.10;99.90;;;;;;4980553;28;20488;-30
2024/04/02 11:26:30;;;;;;;6.30;2.10;;;13.10;99.90;;;;;;4997395;28;21092;-30
2024/04/02 11:29:08;;;;;;;5.53;1.63;;;13.10;99.90;;;;;;4999985;28;20456;-29
2024/04/02 11:31:37;;;;;;;5.13;2.00;;;13.10;99.90;;;;;;5002144;28;20453;-30
2024/04/02 11:34:08;;;;;;;3.90;1.93;;;13.10;99.90;;;;;;4996375;28;20442;-30
2024/04/02 11:36:36;;;;;;;4.67;2.00;;;13.10;99.90;;;;;;4993565;28;20475;-30
2024/04/02 11:39:02;;;;;;;5.23;1.70;;;13.10;99.90;;;;;;4997043;28;20464;-30
2024/04/02 11:41:30;;;;;;;4.07;1.50;;;13.10;99.90;;;;;;4997198;28;20476;-29
2024/04/02 11:43:56;;;;;;;5.03;1.57;;;13.10;99.90;;;;;;4997320;28;20437;-30
2024/04/02 11:46:24;;;;;;;3.43;2.10;;;13.10;99.90;;;;;;4995453;28;20464;-30
2024/04/02 11:48:52;;;;;;;4.07;1.60;;;13.10;99.90;;;;;;4997651;28;20982;-31
2024/04/02 11:51:18;;;;;;;3.67;1.57;;;13.10;99.90;;;;;;4996441;28;20583;-31
2024/04/02 11:53:44;;;;;;;4.13;1.47;;;13.10;99.90;;;;;;5000574;28;21296;-32
2024/04/02 11:56:12;;;;;;;5.40;2.00;;;13.10;99.90;;;;;;5002162;28;20432;-30
2024/04/02 12:01:25;;;;;;;7.00;2.00;;;13.10;99.90;;;;;;4997982;28;20460;-30
2024/04/02 12:03:57;;;;;;;1.83;1.43;;;13.00;99.90;;;;;;4996355;28;20432;-30
2024/04/02 12:06:25;;;;;;;3.07;1.30;;;13.10;99.90;;;;;;4996297;28;20443;-29
2024/04/02 12:08:51;;;;;;;7.83;1.63;;;13.10;99.90;;;;;;4996447;28;20976;-31
2024/04/02 12:11:17;;;;;;;5.83;1.67;;;13.10;99.90;;;;;;4995572;28;20970;-31
2024/04/02 12:13:44;;;;;;;4.30;1.50;;;13.10;99.90;;;;;;4996360;28;20433;-32
2024/04/02 12:16:18;;;;;;;2.40;1.20;;;13.10;99.90;;;;;;4997760;28;20449;-32
2024/04/02 12:18:44;;;;;;;3.03;1.60;;;13.10;99.90;;;;;;4999126;28;20526;-30
2024/04/02 12:21:11;;;;;;;3.60;1.33;;;13.10;99.90;;;;;;4997903;28;20481;-31
2024/04/02 12:23:37;;;;;;;6.40;1.60;;;13.10;99.90;;;;;;4996398;28;20792;-30
2024/04/02 12:26:05;;;;;;;3.87;1.50;;;13.10;99.90;;;;;;4996559;28;20419;-29
2024/04/02 12:28:31;;;;;;;4.07;1.70;;;13.10;99.90;;;;;;4980236;28;20512;-32
2024/04/02 12:30:58;;;;;;;3.23;1.33;;;13.10;99.90;;;;;;4997799;28;20432;-31
2024/04/02 12:33:24;;;;;;;2.27;1.43;;;13.10;99.90;;;;;;4996583;28;20438;-29
2024/04/02 12:35:55;;;;;;;3.00;1.60;;;13.10;99.90;;;;;;4998512;28;20480;-31
2024/04/02 12:38:24;;;;;;;2.57;1.40;;;13.10;99.90;;;;;;4977803;28;20447;-31
2024/04/02 12:40:51;;;;;;;2.80;1.30;;;13.10;99.90;;;;;;4994855;28;21291;-30
2024/04/02 12:43:16;;;;;;;4.50;1.80;;;13.10;99.90;;;;;;4996764;28;20428;-30
2024/04/02 12:45:52;;;;;;;5.13;1.70;;;13.10;99.90;;;;;;4996414;28;20413;-32
2024/04/02 12:48:21;;;;;;;4.43;1.47;;;13.10;99.90;;;;;;4998098;28;20443;-31
2024/04/02 12:50:54;;;;;;;3.17;1.50;;;13.10;99.90;;;;;;4979657;28;20526;-31
2024/04/02 12:53:25;;;;;;;3.53;2.20;;;13.10;99.90;;;;;;5015217;28;20423;-31
2024/04/02 12:55:51;;;;;;;1.50;1.30;;;13.10;99.90;;;;;;4997861;28;20471;-31
2024/04/02 12:58:18;;;;;;;5.87;1.80;;;13.10;99.90;;;;;;4997015;28;20459;-32